X  Cerrar Datos meteorológicos de aviación METAR     LEAL Alicante-Elche Miguel Hernández Airport
Temperatura
70°F Temperatura
64°F Punto de rocío
83% Humedad



Viento
3 MPH
5 KM/H
1 M/S
3 NUDO



270°
O
Condiciones actuales

Claro Claro
Presión 1011.85 (hPa) - 29.88 (inHg)
Visibilidad 6 (milla) - 9.7 (km)
Aeropuerto
Código de aeropuerto LEAL

localidad: Alicante-Elche Miguel Hernández Airport
Distancia: 30 (mi)

Metar:
LEAL 180000Z 27003KT CAVOK 21/18 Q1012 NOSIG

Hora: 18-06-2024 02:00 CEST